Time;durP1;ratioP1;P1;durP2;ratioP2;P2;SDS_P1;SDS_P2;PMS_P1;PMS_P2;Temp;Humidity;BMP_temperature;BMP_pressure;BME280_temperature;BME280_humidity;BME280_pressure;Samples;Min_cycle;Max_cycle;Signal;HPM_P1;HPM_P2
2021/12/17 00:00:57;;;;;;;4.63;2.67;;;5.40;99.90;;;;;;5095721;28;20464;-60
2021/12/17 00:03:36;;;;;;;12.83;3.30;;;5.40;99.90;;;;;;5097165;28;20456;-60
2021/12/17 00:08:52;;;;;;;6.40;2.90;;;5.20;99.90;;;;;;5086145;28;20520;-60
2021/12/17 00:11:21;;;;;;;3.53;2.13;;;5.10;99.90;;;;;;5096265;28;20957;-60
2021/12/17 00:13:53;;;;;;;6.43;3.30;;;5.10;99.90;;;;;;5095962;28;20970;-60
2021/12/17 00:16:24;;;;;;;4.27;2.13;;;5.10;99.90;;;;;;5096070;28;20471;-60
2021/12/17 00:19:13;;;;;;;4.63;2.50;;;5.10;99.90;;;;;;5095247;28;20552;-60
2021/12/17 00:49:32;;;;;;;8.70;3.10;;;5.70;99.90;;;;;;5032476;28;21041;-60
2021/12/17 00:52:02;;;;;;;4.10;2.30;;;5.50;99.90;;;;;;5074459;28;20814;-60
2021/12/17 00:54:35;;;;;;;4.73;2.57;;;5.40;99.90;;;;;;5075275;28;20816;-60
2021/12/17 00:57:12;;;;;;;4.33;2.07;;;5.30;99.90;;;;;;5074681;28;20508;-60
2021/12/17 00:59:40;;;;;;;5.30;2.07;;;5.30;99.90;;;;;;5075359;28;20461;-60
2021/12/17 01:02:16;;;;;;;4.10;1.70;;;5.30;99.90;;;;;;5075742;28;20541;-60
2021/12/17 01:04:59;;;;;;;4.07;1.93;;;5.20;99.90;;;;;;5074563;28;20947;-60
2021/12/17 01:07:30;;;;;;;3.53;2.10;;;5.20;99.90;;;;;;5074769;28;20531;-60
2021/12/17 01:09:57;;;;;;;3.43;1.73;;;5.20;99.90;;;;;;5074315;28;20586;-60
2021/12/17 01:12:25;;;;;;;5.33;1.90;;;5.30;99.90;;;;;;5073677;28;20537;-60
2021/12/17 01:14:53;;;;;;;7.80;2.33;;;5.50;99.90;;;;;;5066878;28;20533;-61
2021/12/17 01:17:25;;;;;;;7.33;1.93;;;5.50;99.90;;;;;;5074764;28;20489;-61
2021/12/17 01:23:00;;;;;;;6.13;3.43;;;5.60;99.90;;;;;;5134114;27;20570;-60
2021/12/17 01:25:44;;;;;;;9.83;3.30;;;5.70;99.90;;;;;;5133901;27;20447;-59
2021/12/17 01:36:26;;;;;;;6.77;2.70;;;6.00;99.90;;;;;;5101192;27;20478;-61
2021/12/17 01:41:57;;;;;;;5.87;3.00;;;6.10;99.90;;;;;;5130494;28;20475;-60
2021/12/17 01:44:24;;;;;;;6.17;2.60;;;6.10;99.90;;;;;;5129009;27;20834;-60
2021/12/17 01:46:53;;;;;;;5.87;1.73;;;6.00;99.90;;;;;;5127885;27;20538;-61
2021/12/17 01:55:38;;;;;;;5.20;2.23;;;6.00;99.90;;;;;;5127577;27;20448;-61
2021/12/17 02:00:37;;;;;;;2.83;2.20;;;6.20;99.90;;;;;;5130229;28;20411;-60
2021/12/17 02:03:06;;;;;;;5.23;2.13;;;6.10;99.90;;;;;;5130757;27;20805;-61
2021/12/17 02:05:33;;;;;;;7.73;3.03;;;6.00;99.90;;;;;;5131756;27;20447;-60
2021/12/17 02:08:02;;;;;;;4.07;2.37;;;5.90;99.90;;;;;;5132804;27;20444;-60
2021/12/17 02:11:04;;;;;;;5.30;2.73;;;5.70;99.90;;;;;;5133056;27;20494;-61
2021/12/17 02:22:42;;;;;;;5.43;3.10;;;5.60;99.90;;;;;;5131389;28;20944;-61
2021/12/17 02:30:49;;;;;;;5.40;2.60;;;5.90;99.90;;;;;;5099420;27;20422;-60
2021/12/17 02:33:16;;;;;;;3.77;1.60;;;5.70;99.90;;;;;;5122909;27;20443;-61
2021/12/17 02:35:45;;;;;;;4.90;2.73;;;5.80;99.90;;;;;;5117960;28;20751;-62
2021/12/17 02:38:15;;;;;;;4.17;2.07;;;5.80;99.90;;;;;;5118539;28;20501;-61
2021/12/17 02:46:12;;;;;;;6.73;4.20;;;5.90;99.90;;;;;;5117327;28;20556;-60
2021/12/17 02:48:42;;;;;;;5.03;3.03;;;5.90;99.90;;;;;;5118184;28;20476;-61
2021/12/17 02:51:09;;;;;;;7.70;3.27;;;5.80;99.90;;;;;;5118149;28;20613;-61
2021/12/17 02:53:38;;;;;;;5.30;3.13;;;5.80;99.90;;;;;;5118231;28;20814;-61
2021/12/17 02:56:08;;;;;;;5.50;3.10;;;5.70;99.90;;;;;;5117329;28;20833;-61
2021/12/17 02:58:37;;;;;;;4.10;2.40;;;5.70;99.90;;;;;;5116476;28;20455;-61
2021/12/17 03:01:07;;;;;;;8.70;2.83;;;5.80;99.90;;;;;;5115766;28;20583;-61
2021/12/17 03:03:35;;;;;;;3.50;1.87;;;5.90;99.90;;;;;;5118296;28;20449;-61
2021/12/17 03:06:03;;;;;;;5.80;2.83;;;6.10;99.90;;;;;;5117729;28;20452;-59
2021/12/17 03:08:30;;;;;;;4.37;2.30;;;6.20;99.90;;;;;;5118325;28;20476;-61
2021/12/17 03:11:00;;;;;;;3.27;2.67;;;6.20;99.90;;;;;;5117902;27;20913;-61
2021/12/17 03:13:29;;;;;;;6.07;2.60;;;6.20;99.90;;;;;;5116526;28;20480;-61
2021/12/17 03:16:00;;;;;;;6.80;3.23;;;6.20;99.90;;;;;;5118953;28;20805;-61
2021/12/17 03:18:59;;;;;;;6.70;3.00;;;6.10;99.90;;;;;;5118206;28;20545;-61
2021/12/17 03:24:10;;;;;;;4.03;2.63;;;6.10;99.90;;;;;;5117880;28;20428;-61
2021/12/17 03:26:38;;;;;;;3.50;2.03;;;5.90;99.90;;;;;;5117932;28;20795;-59
2021/12/17 03:29:08;;;;;;;6.27;2.73;;;5.80;99.90;;;;;;5116787;28;20502;-59
2021/12/17 03:31:35;;;;;;;4.13;2.30;;;5.90;99.90;;;;;;5118393;28;20630;-60
2021/12/17 03:34:16;;;;;;;4.30;2.70;;;5.90;99.90;;;;;;5118721;28;20536;-61
2021/12/17 03:36:43;;;;;;;5.40;2.70;;;5.90;99.90;;;;;;5118245;28;20519;-61
2021/12/17 03:39:10;;;;;;;6.23;3.70;;;6.00;99.90;;;;;;5117593;28;20495;-61
2021/12/17 03:41:39;;;;;;;4.53;2.33;;;5.90;99.90;;;;;;5117752;28;20582;-61
2021/12/17 03:44:08;;;;;;;5.67;2.73;;;5.90;99.90;;;;;;5116630;28;20456;-61
2021/12/17 03:46:35;;;;;;;5.37;2.47;;;5.80;99.90;;;;;;5118032;28;20556;-61
2021/12/17 03:49:03;;;;;;;6.10;2.43;;;5.80;99.90;;;;;;5117769;28;20938;-59
2021/12/17 03:51:30;;;;;;;7.10;4.70;;;5.90;99.90;;;;;;5118151;28;20457;-60
2021/12/17 03:53:59;;;;;;;6.23;3.90;;;5.90;99.90;;;;;;5117137;28;20762;-60
2021/12/17 03:56:27;;;;;;;16.70;4.67;;;5.90;99.90;;;;;;5116149;28;20488;-60
2021/12/17 03:58:57;;;;;;;7.87;4.97;;;5.70;99.90;;;;;;5115523;28;20531;-61
2021/12/17 04:01:25;;;;;;;6.70;3.50;;;5.70;99.90;;;;;;5116019;28;20957;-60
2021/12/17 04:03:52;;;;;;;5.93;2.73;;;5.60;99.90;;;;;;5117398;28;20811;-61
2021/12/17 04:06:19;;;;;;;4.27;2.43;;;5.60;99.90;;;;;;5117273;28;20547;-61
2021/12/17 04:08:46;;;;;;;6.70;3.03;;;5.70;99.90;;;;;;5117478;28;20540;-61
2021/12/17 04:11:18;;;;;;;5.90;4.03;;;5.70;99.90;;;;;;5116688;28;20559;-61
2021/12/17 04:13:52;;;;;;;5.20;3.60;;;5.70;99.90;;;;;;5117329;28;20456;-60
2021/12/17 04:16:24;;;;;;;8.07;4.03;;;5.80;99.90;;;;;;5117330;28;20901;-61
2021/12/17 04:18:52;;;;;;;6.10;3.43;;;5.90;99.90;;;;;;5116485;28;20452;-61
2021/12/17 04:21:19;;;;;;;7.80;3.70;;;5.90;99.90;;;;;;5115262;28;20919;-61
2021/12/17 04:23:48;;;;;;;6.50;2.90;;;6.00;99.90;;;;;;5116004;28;20524;-61
2021/12/17 04:26:17;;;;;;;5.77;3.50;;;6.00;99.90;;;;;;5116790;28;20536;-61
2021/12/17 04:28:47;;;;;;;5.17;2.63;;;5.90;99.90;;;;;;5117211;28;20543;-61
2021/12/17 04:31:15;;;;;;;5.33;3.40;;;5.90;99.90;;;;;;5117373;28;20491;-62
2021/12/17 04:33:44;;;;;;;5.17;3.43;;;5.80;99.90;;;;;;5117769;28;20516;-61
2021/12/17 04:36:14;;;;;;;8.63;4.50;;;5.80;99.90;;;;;;5115409;28;20966;-61
2021/12/17 04:38:42;;;;;;;7.43;4.13;;;5.80;99.90;;;;;;5115587;28;20488;-61
2021/12/17 04:44:02;;;;;;;8.57;3.60;;;5.90;99.90;;;;;;5116008;28;20412;-60
2021/12/17 04:46:34;;;;;;;7.00;3.27;;;6.00;99.90;;;;;;5116333;28;20459;-60
2021/12/17 04:57:31;;;;;;;7.93;3.90;;;5.90;99.90;;;;;;5108661;28;20436;-60
2021/12/17 05:00:02;;;;;;;4.93;4.37;;;5.80;99.90;;;;;;5115806;28;20449;-60
2021/12/17 05:02:30;;;;;;;8.47;3.50;;;5.80;99.90;;;;;;5116059;28;20484;-60
2021/12/17 05:05:05;;;;;;;4.97;3.50;;;5.80;99.90;;;;;;5116123;28;20506;-60
2021/12/17 05:07:32;;;;;;;4.57;2.67;;;5.80;99.90;;;;;;5116750;27;20455;-60
2021/12/17 05:10:07;;;;;;;5.97;3.20;;;5.80;99.90;;;;;;5116672;28;20444;-60
2021/12/17 05:18:17;;;;;;;5.53;3.47;;;6.00;99.90;;;;;;5115980;28;20416;-60
2021/12/17 05:20:47;;;;;;;6.60;3.60;;;5.80;99.90;;;;;;5116187;28;20488;-60
2021/12/17 05:23:14;;;;;;;8.97;3.80;;;5.80;99.90;;;;;;5116372;28;20574;-60
2021/12/17 05:25:41;;;;;;;8.00;4.30;;;5.90;99.90;;;;;;5116155;28;20822;-59
2021/12/17 05:28:08;;;;;;;6.70;3.13;;;5.90;99.90;;;;;;5116039;28;20899;-59
2021/12/17 05:30:36;;;;;;;9.93;3.93;;;6.00;99.90;;;;;;5115084;28;20535;-60
2021/12/17 05:33:03;;;;;;;6.90;4.50;;;6.10;99.90;;;;;;5115590;28;20615;-61
2021/12/17 05:35:30;;;;;;;6.33;3.37;;;6.20;99.90;;;;;;5116315;28;20937;-61
2021/12/17 05:37:59;;;;;;;5.80;3.60;;;6.10;99.90;;;;;;5115594;28;20857;-61
2021/12/17 05:40:26;;;;;;;7.13;3.07;;;6.10;99.90;;;;;;5115865;28;20523;-59
2021/12/17 05:42:55;;;;;;;7.60;3.80;;;6.20;99.90;;;;;;5115547;28;20567;-60
2021/12/17 05:45:33;;;;;;;5.97;3.60;;;6.30;99.90;;;;;;5115028;28;20840;-60
2021/12/17 05:48:01;;;;;;;3.37;2.30;;;6.30;99.90;;;;;;5115329;28;20448;-61
2021/12/17 05:50:28;;;;;;;8.00;3.10;;;6.20;99.90;;;;;;5115164;28;20868;-60
2021/12/17 05:52:55;;;;;;;5.37;3.03;;;6.10;99.90;;;;;;5114628;28;20732;-60
2021/12/17 05:55:23;;;;;;;4.27;2.30;;;6.30;99.90;;;;;;5113524;28;21080;-60
2021/12/17 05:57:52;;;;;;;4.80;2.20;;;6.70;99.90;;;;;;5114266;28;20480;-61
2021/12/17 06:00:20;;;;;;;13.07;1.80;;;6.70;99.90;;;;;;5114071;28;20447;-61
2021/12/17 06:02:47;;;;;;;5.90;1.90;;;6.60;99.90;;;;;;5112867;28;20563;-62
2021/12/17 06:05:14;;;;;;;4.67;1.53;;;6.50;99.90;;;;;;5113911;28;20544;-61
2021/12/17 06:07:41;;;;;;;1.93;1.10;;;6.40;99.90;;;;;;5114450;28;20543;-62
2021/12/17 06:10:09;;;;;;;4.57;1.30;;;6.30;99.90;;;;;;5117109;28;20543;-62
2021/12/17 06:12:38;;;;;;;2.87;1.23;;;6.20;99.90;;;;;;5116643;28;20496;-62
2021/12/17 06:15:08;;;;;;;4.00;1.20;;;6.20;99.90;;;;;;5116723;28;20437;-62
2021/12/17 06:17:35;;;;;;;5.60;1.43;;;6.20;99.90;;;;;;5116679;28;20499;-59
2021/12/17 06:20:03;;;;;;;4.37;2.47;;;6.30;99.90;;;;;;5117277;28;20810;-62
2021/12/17 06:22:30;;;;;;;3.80;1.70;;;6.40;99.90;;;;;;5115716;28;20524;-61
2021/12/17 06:24:57;;;;;;;4.53;1.77;;;6.40;99.90;;;;;;5114770;28;20436;-62
2021/12/17 06:27:24;;;;;;;3.30;1.80;;;6.40;99.90;;;;;;5114436;28;20542;-62
2021/12/17 06:29:54;;;;;;;6.03;2.27;;;6.40;99.90;;;;;;5113782;28;20902;-62
2021/12/17 06:32:22;;;;;;;4.23;1.70;;;6.50;99.90;;;;;;5116278;27;20452;-61
2021/12/17 06:34:49;;;;;;;3.20;1.77;;;6.50;99.90;;;;;;5117103;28;20539;-61
2021/12/17 06:37:17;;;;;;;3.10;1.73;;;6.60;99.90;;;;;;5119173;27;20495;-61
2021/12/17 06:39:44;;;;;;;3.40;1.20;;;6.50;99.90;;;;;;5117544;28;20476;-61
2021/12/17 06:42:12;;;;;;;3.93;2.23;;;6.40;99.90;;;;;;5115690;28;21049;-61
2021/12/17 06:44:39;;;;;;;3.37;1.40;;;6.50;99.90;;;;;;5116115;28;20898;-61
2021/12/17 06:47:12;;;;;;;5.27;1.80;;;6.50;99.90;;;;;;5110969;28;20740;-61
2021/12/17 06:49:50;;;;;;;2.43;1.20;;;6.50;99.90;;;;;;5099120;28;20717;-61
2021/12/17 06:55:16;;;;;;;4.37;1.77;;;6.40;99.90;;;;;;5112721;28;20425;-61
2021/12/17 06:58:23;;;;;;;2.33;1.10;;;6.30;99.90;;;;;;5102651;28;20448;-54
2021/12/17 07:01:02;;;;;;;3.57;1.83;;;6.40;99.90;;;;;;5098102;28;20452;-60
2021/12/17 07:06:26;;;;;;;3.60;1.57;;;6.80;99.90;;;;;;5109605;28;20436;-62
2021/12/17 07:17:07;;;;;;;3.40;1.40;;;6.70;99.90;;;;;;5054539;28;20431;-60
2021/12/17 07:17:27;;;;;;;14.50;6.93;;;6.90;99.90;;;;;;5109532;28;20476;-60
2021/12/17 07:23:00;;;;;;;2.40;1.50;;;6.90;99.90;;;;;;5112567;28;20771;-61
2021/12/17 07:28:32;;;;;;;2.43;1.10;;;6.90;99.90;;;;;;5100555;28;20765;-61
2021/12/17 07:33:57;;;;;;;2.70;1.60;;;7.00;99.90;;;;;;5105137;28;20433;-62
2021/12/17 07:36:25;;;;;;;3.57;1.67;;;6.90;99.90;;;;;;5110394;28;20451;-62
2021/12/17 07:38:51;;;;;;;3.33;1.83;;;7.00;99.90;;;;;;5098304;28;20437;-60
2021/12/17 07:41:19;;;;;;;4.97;1.90;;;6.90;99.90;;;;;;5109405;28;20545;-60
2021/12/17 07:43:54;;;;;;;4.07;1.40;;;6.90;99.90;;;;;;5105129;28;20303;-59
2021/12/17 07:46:21;;;;;;;4.00;2.23;;;7.00;99.90;;;;;;5105602;28;20538;-58
2021/12/17 07:48:49;;;;;;;3.10;1.47;;;6.90;99.90;;;;;;5108470;27;20476;-59
2021/12/17 07:51:18;;;;;;;2.83;1.20;;;6.90;99.90;;;;;;5109104;28;20532;-59
2021/12/17 07:53:47;;;;;;;2.23;1.10;;;7.00;99.90;;;;;;5114453;28;20551;-59
2021/12/17 07:56:18;;;;;;;1.60;1.00;;;7.40;99.90;;;;;;5099174;28;20771;-60
2021/12/17 07:58:46;;;;;;;3.40;1.30;;;7.40;99.90;;;;;;5110249;28;20536;-60
2021/12/17 08:01:14;;;;;;;2.13;1.10;;;7.50;99.90;;;;;;5099831;28;20477;-60
2021/12/17 08:03:43;;;;;;;3.07;1.20;;;7.50;99.90;;;;;;5103164;28;20564;-60
2021/12/17 08:06:11;;;;;;;2.20;1.20;;;7.50;99.90;;;;;;5105266;28;20488;-60
2021/12/17 08:08:38;;;;;;;4.83;1.20;;;7.40;99.90;;;;;;5093842;28;20438;-60
2021/12/17 08:11:12;;;;;;;2.70;1.40;;;7.30;99.90;;;;;;5107959;28;20538;-59
2021/12/17 08:13:41;;;;;;;1.90;1.00;;;7.20;99.90;;;;;;5101886;28;20533;-60
2021/12/17 08:16:20;;;;;;;3.03;1.07;;;6.90;99.90;;;;;;5097907;28;20503;-61
2021/12/17 08:24:53;;;;;;;2.43;1.13;;;7.00;99.90;;;;;;5064289;28;20535;-62
2021/12/17 08:27:31;;;;;;;1.53;0.90;;;7.00;99.90;;;;;;5086463;28;20449;-61
2021/12/17 08:30:20;;;;;;;3.57;0.93;;;7.00;99.90;;;;;;5110180;28;20606;-62
2021/12/17 08:32:49;;;;;;;2.10;1.37;;;7.00;99.90;;;;;;5112733;28;20502;-62
2021/12/17 08:35:19;;;;;;;1.73;1.00;;;7.00;99.90;;;;;;5112061;28;20444;-60
2021/12/17 08:37:48;;;;;;;10.80;1.20;;;6.90;99.90;;;;;;5113511;28;20448;-61
2021/12/17 08:40:15;;;;;;;2.83;1.30;;;7.00;99.90;;;;;;5113556;28;20507;-60
2021/12/17 08:42:44;;;;;;;1.70;1.30;;;7.10;99.90;;;;;;5114551;28;20571;-61
2021/12/17 08:45:11;;;;;;;3.20;1.03;;;6.90;99.90;;;;;;5114588;28;20441;-61
2021/12/17 08:47:40;;;;;;;3.20;1.00;;;7.00;99.90;;;;;;5103683;28;20521;-62
2021/12/17 08:50:10;;;;;;;1.87;0.80;;;7.30;99.90;;;;;;5101033;28;20445;-62
2021/12/17 08:52:37;;;;;;;1.13;0.77;;;7.40;99.90;;;;;;5111377;28;20855;-62
2021/12/17 08:55:05;;;;;;;1.73;0.70;;;7.40;99.90;;;;;;5113738;28;20445;-62
2021/12/17 08:57:34;;;;;;;1.20;0.80;;;7.50;99.90;;;;;;5114550;28;20781;-62
2021/12/17 09:00:06;;;;;;;1.30;0.90;;;7.50;99.90;;;;;;5114305;28;20502;-62
2021/12/17 09:02:36;;;;;;;2.10;0.80;;;7.60;99.90;;;;;;5104490;28;20463;-62
2021/12/17 09:05:04;;;;;;;1.10;0.70;;;7.60;99.90;;;;;;5114423;28;20441;-62
2021/12/17 09:07:31;;;;;;;1.07;0.77;;;7.40;99.90;;;;;;5105690;28;20488;-62
2021/12/17 09:09:58;;;;;;;3.53;0.90;;;7.30;99.90;;;;;;5105005;28;20895;-62
2021/12/17 09:12:25;;;;;;;1.53;0.90;;;7.00;99.90;;;;;;5098400;28;20473;-62
2021/12/17 09:14:52;;;;;;;1.73;0.80;;;6.90;99.90;;;;;;5110506;28;20549;-62
2021/12/17 09:17:24;;;;;;;1.57;0.77;;;6.70;99.90;;;;;;5100689;28;20524;-62
2021/12/17 09:19:51;;;;;;;2.17;0.93;;;6.60;99.90;;;;;;5102154;28;20445;-62
2021/12/17 09:22:18;;;;;;;1.43;0.90;;;6.50;99.90;;;;;;5107195;28;20599;-62
2021/12/17 09:24:45;;;;;;;2.83;1.00;;;6.60;99.90;;;;;;5095540;28;20560;-63
2021/12/17 09:27:12;;;;;;;2.90;0.83;;;6.60;99.90;;;;;;5105617;28;20458;-62
2021/12/17 09:29:39;;;;;;;1.70;0.70;;;6.60;99.90;;;;;;5100226;28;20523;-62
2021/12/17 09:32:06;;;;;;;1.03;0.70;;;6.70;99.90;;;;;;5098947;28;21022;-61
2021/12/17 09:34:35;;;;;;;1.80;0.77;;;6.90;99.90;;;;;;5109693;28;20714;-58
2021/12/17 09:37:07;;;;;;;1.43;1.00;;;7.10;99.90;;;;;;5096787;28;20637;-58
2021/12/17 09:39:34;;;;;;;2.40;1.37;;;7.00;99.90;;;;;;5104082;28;20857;-59
2021/12/17 09:42:01;;;;;;;1.60;0.80;;;7.30;99.90;;;;;;5106871;28;20463;-58
2021/12/17 09:44:29;;;;;;;1.30;0.90;;;7.40;99.90;;;;;;5099514;28;20948;-58
2021/12/17 09:47:00;;;;;;;2.93;0.80;;;7.30;99.90;;;;;;5099064;28;20483;-59
2021/12/17 09:49:32;;;;;;;4.67;0.90;;;7.50;99.90;;;;;;5108875;28;20479;-58
2021/12/17 09:52:01;;;;;;;1.30;0.80;;;7.30;99.90;;;;;;5109184;28;20444;-58
2021/12/17 09:54:30;;;;;;;1.33;0.90;;;7.30;99.90;;;;;;5099076;28;20449;-58
2021/12/17 09:56:57;;;;;;;1.30;0.80;;;7.20;99.90;;;;;;5101594;28;20752;-59
2021/12/17 09:59:25;;;;;;;1.73;0.90;;;7.00;99.90;;;;;;5109833;28;20903;-58
2021/12/17 10:01:52;;;;;;;2.00;0.87;;;7.10;99.90;;;;;;5108241;28;20531;-58
2021/12/17 10:04:21;;;;;;;2.20;0.90;;;7.30;99.90;;;;;;5098731;28;20485;-58
2021/12/17 10:06:49;;;;;;;2.00;0.90;;;7.60;99.90;;;;;;5110908;28;20441;-58
2021/12/17 10:09:18;;;;;;;1.60;0.80;;;7.80;99.90;;;;;;5101296;28;20535;-58
2021/12/17 10:12:03;;;;;;;1.50;0.90;;;8.20;99.90;;;;;;5106200;28;20528;-59
2021/12/17 10:14:31;;;;;;;1.40;0.80;;;8.50;99.90;;;;;;5114108;28;20782;-56
2021/12/17 10:17:10;;;;;;;1.53;0.87;;;8.40;99.90;;;;;;5106470;28;20452;-57
2021/12/17 10:19:48;;;;;;;1.57;0.80;;;8.40;99.90;;;;;;5110238;28;20495;-57
2021/12/17 10:22:23;;;;;;;2.50;1.00;;;8.30;99.90;;;;;;5110605;28;20503;-56
2021/12/17 10:25:04;;;;;;;1.60;0.80;;;8.60;99.90;;;;;;5108080;28;20537;-58
2021/12/17 10:27:35;;;;;;;2.20;0.87;;;8.80;99.90;;;;;;5104109;28;20846;-58
2021/12/17 10:30:15;;;;;;;3.43;0.93;;;8.70;99.90;;;;;;5105376;28;20457;-57
2021/12/17 10:32:44;;;;;;;1.90;0.70;;;8.00;99.90;;;;;;5105084;28;20533;-58
2021/12/17 10:35:13;;;;;;;2.40;0.93;;;8.00;99.90;;;;;;5109955;28;20509;-58
2021/12/17 10:37:44;;;;;;;1.40;0.80;;;8.00;99.90;;;;;;5104730;28;20488;-62
2021/12/17 10:40:28;;;;;;;2.30;0.97;;;8.00;99.90;;;;;;5108946;28;20568;-62
2021/12/17 10:43:04;;;;;;;2.57;1.30;;;8.00;99.90;;;;;;5107053;28;20745;-63
2021/12/17 10:45:38;;;;;;;2.73;1.00;;;8.00;99.90;;;;;;5100917;28;20606;-63
2021/12/17 10:48:24;;;;;;;4.70;1.03;;;7.90;99.90;;;;;;5107632;28;20498;-62
2021/12/17 10:50:54;;;;;;;2.40;1.00;;;7.80;99.90;;;;;;5115062;28;20525;-66
2021/12/17 10:53:25;;;;;;;3.30;1.17;;;8.00;99.90;;;;;;5111860;28;20846;-66
2021/12/17 10:55:55;;;;;;;1.63;0.90;;;8.00;99.90;;;;;;5103748;28;20763;-66
2021/12/17 10:58:26;;;;;;;1.40;0.77;;;8.10;99.90;;;;;;5108030;28;20453;-68
2021/12/17 11:01:05;;;;;;;1.70;0.87;;;8.20;99.90;;;;;;5105393;28;20478;-66
2021/12/17 11:03:40;;;;;;;3.20;1.10;;;8.20;99.90;;;;;;5106069;28;20563;-65
2021/12/17 11:06:07;;;;;;;2.67;0.90;;;8.20;99.90;;;;;;5097791;28;20440;-67
2021/12/17 11:08:37;;;;;;;1.77;0.90;;;8.20;99.90;;;;;;5105765;28;20545;-67
2021/12/17 11:11:10;;;;;;;1.80;1.00;;;8.30;99.90;;;;;;5103864;28;20445;-66
2021/12/17 11:13:55;;;;;;;2.63;1.17;;;8.20;99.90;;;;;;5106513;28;20896;-65
2021/12/17 11:16:22;;;;;;;3.00;1.40;;;8.10;99.90;;;;;;5113961;28;20536;-65
2021/12/17 11:18:50;;;;;;;4.27;1.10;;;8.10;99.90;;;;;;5111993;28;20464;-65
2021/12/17 11:21:18;;;;;;;5.00;1.63;;;8.20;99.90;;;;;;5113822;28;20563;-66
2021/12/17 11:23:48;;;;;;;4.40;1.37;;;8.30;99.90;;;;;;5112700;27;21254;-66
2021/12/17 11:26:17;;;;;;;3.57;1.10;;;8.30;99.90;;;;;;5113476;28;20460;-65
2021/12/17 11:28:46;;;;;;;2.83;1.13;;;8.20;99.90;;;;;;5113002;28;20849;-66
2021/12/17 11:31:13;;;;;;;8.47;1.10;;;8.30;99.90;;;;;;5112446;28;20445;-65
2021/12/17 11:33:42;;;;;;;3.60;1.20;;;8.40;99.90;;;;;;5112192;28;20498;-66
2021/12/17 11:36:09;;;;;;;3.80;1.57;;;8.30;99.90;;;;;;5105370;27;20517;-65
2021/12/17 11:38:47;;;;;;;3.37;1.50;;;8.20;99.90;;;;;;5114041;28;20517;-66
2021/12/17 11:41:22;;;;;;;1.63;0.90;;;8.30;99.90;;;;;;5113601;28;20452;-66
2021/12/17 11:43:58;;;;;;;2.40;1.50;;;8.40;99.90;;;;;;5110774;28;20519;-66
2021/12/17 11:46:28;;;;;;;2.27;1.30;;;8.50;99.90;;;;;;5108636;28;20448;-66
2021/12/17 11:48:59;;;;;;;5.73;1.30;;;8.50;99.90;;;;;;5109408;28;20569;-65
2021/12/17 11:51:29;;;;;;;3.73;1.27;;;8.40;99.90;;;;;;5112411;27;20440;-63
2021/12/17 11:54:07;;;;;;;2.73;1.30;;;8.30;99.90;;;;;;5100077;28;20464;-67
2021/12/17 11:56:52;;;;;;;2.23;1.50;;;8.30;99.90;;;;;;5106440;28;20754;-67
2021/12/17 11:59:42;;;;;;;1.50;0.90;;;8.30;99.90;;;;;;5111200;28;20452;-65
2021/12/17 12:02:15;;;;;;;1.90;1.20;;;8.30;99.90;;;;;;5105146;28;20448;-66
2021/12/17 12:04:52;;;;;;;2.80;1.40;;;8.20;99.90;;;;;;5111673;28;20469;-66
2021/12/17 12:07:23;;;;;;;3.60;1.40;;;8.30;99.90;;;;;;5110202;28;20490;-64
2021/12/17 12:09:59;;;;;;;3.13;1.07;;;8.10;99.90;;;;;;5109290;28;20527;-65
2021/12/17 12:12:51;;;;;;;2.47;1.30;;;8.00;99.90;;;;;;5103631;28;20876;-65
2021/12/17 12:15:31;;;;;;;2.10;1.30;;;8.10;99.90;;;;;;5106500;28;20437;-65
2021/12/17 12:18:09;;;;;;;3.83;1.10;;;8.10;99.90;;;;;;5102856;28;20515;-66
2021/12/17 12:20:58;;;;;;;1.20;0.80;;;8.10;99.90;;;;;;5103024;28;20442;-66
2021/12/17 12:23:42;;;;;;;2.63;1.00;;;8.20;99.90;;;;;;5103248;28;20536;-66
2021/12/17 12:26:37;;;;;;;2.10;1.00;;;8.10;99.90;;;;;;5105305;28;20835;-67
2021/12/17 12:29:14;;;;;;;2.67;0.93;;;8.10;99.90;;;;;;5110914;28;20459;-67
2021/12/17 12:31:55;;;;;;;7.07;1.00;;;8.00;99.90;;;;;;5113488;28;20472;-67
2021/12/17 12:34:39;;;;;;;2.80;1.30;;;8.20;99.90;;;;;;5112670;28;20456;-68
2021/12/17 12:37:34;;;;;;;3.20;1.37;;;8.20;99.90;;;;;;5098854;28;20499;-68
2021/12/17 12:40:16;;;;;;;2.97;1.17;;;8.30;99.90;;;;;;5104214;28;20440;-66
2021/12/17 12:42:51;;;;;;;4.30;1.10;;;8.30;99.90;;;;;;5112091;28;20448;-67
2021/12/17 12:45:23;;;;;;;2.00;1.00;;;8.30;99.90;;;;;;5104141;28;20479;-67
2021/12/17 12:47:58;;;;;;;3.10;1.10;;;8.40;99.90;;;;;;5108515;28;21041;-68
2021/12/17 12:50:30;;;;;;;4.50;1.20;;;8.50;99.90;;;;;;5107868;28;20760;-68
2021/12/17 12:53:04;;;;;;;1.80;0.90;;;8.50;99.90;;;;;;5103511;28;20449;-69
2021/12/17 12:55:34;;;;;;;2.80;1.00;;;8.50;99.90;;;;;;5109199;28;20770;-70
2021/12/17 12:58:11;;;;;;;3.13;1.13;;;8.60;99.90;;;;;;5107636;28;20472;-70
2021/12/17 13:00:46;;;;;;;3.10;1.53;;;8.60;99.90;;;;;;5112119;28;20456;-70
2021/12/17 13:03:15;;;;;;;1.47;0.97;;;8.70;99.90;;;;;;5110991;28;20444;-70
2021/12/17 13:05:44;;;;;;;3.80;1.40;;;8.70;99.90;;;;;;5109516;28;20564;-69
2021/12/17 13:08:14;;;;;;;3.87;1.10;;;8.60;99.90;;;;;;5111748;28;20453;-69
2021/12/17 13:10:46;;;;;;;1.50;1.00;;;8.70;99.90;;;;;;5112733;28;20445;-69
2021/12/17 13:13:19;;;;;;;1.47;0.80;;;8.60;99.90;;;;;;5106964;28;20472;-65
2021/12/17 13:16:02;;;;;;;1.33;1.00;;;8.60;99.90;;;;;;5108862;28;20447;-65
2021/12/17 13:21:33;;;;;;;2.90;0.80;;;8.70;99.90;;;;;;5113022;28;20460;-67
2021/12/17 13:24:11;;;;;;;1.50;1.00;;;8.90;99.90;;;;;;5111030;28;20453;-68
2021/12/17 13:26:41;;;;;;;1.40;0.90;;;8.80;99.90;;;;;;5113167;28;20540;-68
2021/12/17 13:29:12;;;;;;;3.20;1.10;;;8.60;99.90;;;;;;5111563;28;20448;-69
2021/12/17 13:31:45;;;;;;;1.53;1.00;;;8.50;99.90;;;;;;5105008;28;20468;-70
2021/12/17 13:34:15;;;;;;;2.17;1.10;;;8.50;99.90;;;;;;5106364;28;20464;-70
2021/12/17 13:36:52;;;;;;;1.73;0.90;;;8.60;99.90;;;;;;5111410;28;20468;-70
2021/12/17 13:39:26;;;;;;;1.73;0.80;;;8.60;99.90;;;;;;5111618;28;20459;-70
2021/12/17 13:41:59;;;;;;;3.20;1.10;;;8.60;99.90;;;;;;5112605;28;20633;-70
2021/12/17 13:44:37;;;;;;;4.43;1.20;;;8.50;99.90;;;;;;5112481;28;20841;-68
2021/12/17 13:47:18;;;;;;;3.50;0.70;;;8.40;99.90;;;;;;5107177;28;20547;-67
2021/12/17 13:49:52;;;;;;;2.23;0.70;;;8.50;99.90;;;;;;5108902;28;20444;-69
2021/12/17 13:52:23;;;;;;;3.00;0.90;;;8.50;99.90;;;;;;5111623;28;20501;-70
2021/12/17 13:54:53;;;;;;;2.10;1.00;;;8.60;99.90;;;;;;5111321;28;20819;-69
2021/12/17 13:57:24;;;;;;;2.63;1.40;;;8.50;99.90;;;;;;5108230;28;20824;-69
2021/12/17 13:59:51;;;;;;;3.17;1.30;;;8.70;99.90;;;;;;5108212;28;20528;-69
2021/12/17 14:02:24;;;;;;;1.47;0.90;;;8.70;99.90;;;;;;5110773;28;20468;-68
2021/12/17 14:05:06;;;;;;;1.80;1.00;;;8.60;99.90;;;;;;5109367;28;20555;-70
2021/12/17 14:07:34;;;;;;;1.67;0.80;;;8.60;99.90;;;;;;5109539;28;20440;-68
2021/12/17 14:10:06;;;;;;;4.50;1.10;;;8.50;99.90;;;;;;5110373;28;20475;-68
2021/12/17 14:12:37;;;;;;;2.60;1.00;;;8.50;99.90;;;;;;5111551;28;20935;-69
2021/12/17 14:15:08;;;;;;;4.93;1.17;;;8.40;99.90;;;;;;5111974;28;20543;-69
2021/12/17 14:17:39;;;;;;;1.77;0.80;;;8.40;99.90;;;;;;5108386;28;20859;-69
2021/12/17 14:20:10;;;;;;;4.77;0.93;;;8.40;99.90;;;;;;5110706;28;20878;-69
2021/12/17 14:22:38;;;;;;;2.20;1.20;;;8.40;99.90;;;;;;5112872;28;20480;-69
2021/12/17 14:25:34;;;;;;;2.87;0.97;;;8.40;99.90;;;;;;5111509;28;20477;-69
2021/12/17 14:28:08;;;;;;;4.50;1.50;;;8.30;99.90;;;;;;5112050;28;20886;-69
2021/12/17 14:30:35;;;;;;;2.07;1.00;;;8.20;99.90;;;;;;5107160;28;20539;-69
2021/12/17 14:33:15;;;;;;;2.20;1.00;;;8.10;99.90;;;;;;5116180;28;20452;-69
2021/12/17 14:35:52;;;;;;;11.20;1.30;;;8.20;99.90;;;;;;5115951;28;20883;-70
2021/12/17 14:38:24;;;;;;;2.57;1.20;;;8.10;99.90;;;;;;5114025;28;20444;-69
2021/12/17 14:41:00;;;;;;;4.87;1.20;;;8.10;99.90;;;;;;5114343;28;20472;-69
2021/12/17 14:43:36;;;;;;;3.37;1.20;;;8.10;99.90;;;;;;5111898;28;20555;-69
2021/12/17 14:46:18;;;;;;;3.30;1.27;;;8.00;99.90;;;;;;5110964;28;20470;-70
2021/12/17 14:49:03;;;;;;;3.47;1.50;;;7.80;99.90;;;;;;5102446;28;20457;-69
2021/12/17 14:57:39;;;;;;;3.53;1.47;;;7.80;99.90;;;;;;5057344;28;20899;-69
2021/12/17 15:00:24;;;;;;;4.57;1.57;;;7.80;99.90;;;;;;5102441;28;20476;-67
2021/12/17 15:02:58;;;;;;;3.00;1.40;;;7.70;99.90;;;;;;5095332;28;20483;-70
2021/12/17 15:05:29;;;;;;;1.97;1.30;;;7.70;99.90;;;;;;5108699;28;20483;-70
2021/12/17 15:07:58;;;;;;;3.57;1.80;;;7.80;99.90;;;;;;5115122;28;20499;-67
2021/12/17 15:10:28;;;;;;;4.07;1.80;;;7.90;99.90;;;;;;5113911;28;20528;-68
2021/12/17 15:13:00;;;;;;;2.67;1.47;;;7.80;99.90;;;;;;5113300;28;21128;-68
2021/12/17 15:15:29;;;;;;;3.20;1.77;;;7.70;99.90;;;;;;5114159;28;20502;-68
2021/12/17 15:18:04;;;;;;;3.70;2.10;;;7.70;99.90;;;;;;5112544;27;20969;-68
2021/12/17 15:20:34;;;;;;;2.53;1.50;;;7.70;99.90;;;;;;5113353;28;20454;-68
2021/12/17 15:23:05;;;;;;;3.70;1.53;;;7.60;99.90;;;;;;5113072;28;20562;-67
2021/12/17 15:25:32;;;;;;;5.23;2.47;;;7.60;99.90;;;;;;5113154;28;21006;-68
2021/12/17 15:28:02;;;;;;;3.23;1.33;;;7.60;99.90;;;;;;5112136;28;20476;-68
2021/12/17 15:30:33;;;;;;;5.77;1.30;;;7.60;99.90;;;;;;5111559;28;20883;-68